Time;durP1;ratioP1;P1;durP2;ratioP2;P2;SDS_P1;SDS_P2;PMS_P1;PMS_P2;Temp;Humidity;BMP_temperature;BMP_pressure;BME280_temperature;BME280_humidity;BME280_pressure;Samples;Min_cycle;Max_cycle;Signal;HPM_P1;HPM_P2
2022/01/22 00:01:43;;;;;;;27.00;11.10;;;;;;;-3.03;77.29;98802.98;2205733;80;20957;-81
2022/01/22 00:04:43;;;;;;;27.57;12.00;;;;;;;-3.07;77.20;98809.95;2206420;80;21288;-80
2022/01/22 00:07:43;;;;;;;16.30;7.97;;;;;;;-3.11;77.18;98810.15;2204294;80;21348;-82
2022/01/22 00:10:45;;;;;;;14.77;5.63;;;;;;;-3.12;77.10;98807.10;2200493;80;21386;-81
2022/01/22 00:17:04;;;;;;;25.73;11.87;;;;;;;-3.15;77.08;98814.95;2222210;80;21042;-80
2022/01/22 00:20:04;;;;;;;19.80;8.77;;;;;;;-3.21;77.29;98812.50;2204599;80;21000;-81
2022/01/22 00:23:05;;;;;;;20.70;9.13;;;;;;;-3.25;77.57;98810.93;2197368;80;21003;-80
2022/01/22 00:26:06;;;;;;;20.07;11.03;;;;;;;-3.29;77.71;98806.41;2205806;80;21000;-80
2022/01/22 00:29:06;;;;;;;16.03;8.97;;;;;;;-3.33;77.89;98807.00;2196952;80;21008;-81
2022/01/22 00:32:07;;;;;;;25.43;10.30;;;;;;;-3.38;78.00;98804.14;2196088;80;21007;-81
2022/01/22 00:35:07;;;;;;;25.17;8.83;;;;;;;-3.39;78.08;98808.76;2196766;80;20997;-80
2022/01/22 00:38:08;;;;;;;20.10;7.90;;;;;;;-3.41;78.10;98807.77;2202518;80;21339;-81
2022/01/22 00:41:08;;;;;;;20.87;7.37;;;;;;;-3.45;78.12;98804.53;2203635;80;21004;-82
2022/01/22 00:44:09;;;;;;;19.57;7.13;;;;;;;-3.49;78.16;98803.80;2203600;80;20976;-82
2022/01/22 00:47:09;;;;;;;18.80;6.20;;;;;;;-3.55;78.31;98804.29;2205851;80;21007;-82
2022/01/22 00:50:11;;;;;;;15.43;5.37;;;;;;;-3.58;78.45;98809.58;2198354;80;21035;-82
2022/01/22 00:53:12;;;;;;;10.23;4.70;;;;;;;-3.61;78.56;98812.81;2207197;81;20968;-82
2022/01/22 00:56:13;;;;;;;9.10;4.13;;;;;;;-3.67;78.60;98812.41;2201815;80;20984;-82
2022/01/22 00:59:14;;;;;;;7.80;4.20;;;;;;;-3.69;78.66;98810.14;2203055;81;20921;-82
2022/01/22 01:02:14;;;;;;;8.20;4.60;;;;;;;-3.73;78.58;98813.66;2202660;80;21045;-82
2022/01/22 01:05:15;;;;;;;9.57;4.97;;;;;;;-3.79;78.54;98811.59;2199113;80;21041;-82
2022/01/22 01:08:15;;;;;;;13.50;5.60;;;;;;;-3.83;78.66;98804.91;2201199;80;21036;-83
2022/01/22 01:11:17;;;;;;;11.63;5.50;;;;;;;-3.85;78.85;98806.97;2200267;80;21023;-81
2022/01/22 01:14:25;;;;;;;10.00;5.43;;;;;;;-3.88;78.88;98806.77;2211062;81;21308;-82
2022/01/22 01:17:45;;;;;;;74.90;36.60;;;;;;;-3.90;78.82;98809.99;2193595;80;21099;-81
2022/01/22 01:33:50;;;;;;;14.20;5.67;;;;;;;-4.02;79.04;98817.70;2210988;80;21333;-82
2022/01/22 01:36:42;;;;;;;15.63;6.00;;;;;;;-3.96;79.22;98819.78;2201989;80;20990;-85
2022/01/22 01:39:44;;;;;;;10.77;5.90;;;;;;;-2.81;91.81;98809.05;2200047;80;21344;-82
2022/01/22 01:43:01;;;;;;;12.60;6.07;;;;;;;-0.24;92.25;98801.14;2211084;81;20996;-83
2022/01/22 01:45:51;;;;;;;12.10;5.20;;;;;;;-0.77;79.00;98809.38;2206511;80;20978;-82
2022/01/22 01:48:51;;;;;;;10.77;5.17;;;;;;;0.55;84.48;98798.86;2194768;80;21016;-82
2022/01/22 01:51:57;;;;;;;12.60;5.33;;;;;;;-0.09;76.11;98805.80;2208806;80;20940;-82
2022/01/22 01:58:02;;;;;;;11.60;5.47;;;;;;;-1.56;75.11;98818.91;2189469;80;21044;-82
2022/01/22 02:01:05;;;;;;;8.83;5.23;;;;;;;-1.97;75.74;98810.91;2206592;80;21344;-81
2022/01/22 02:04:08;;;;;;;10.80;6.37;;;;;;;-2.26;76.41;98821.05;2211068;81;21028;-81
2022/01/22 02:07:08;;;;;;;13.83;6.23;;;;;;;-2.41;77.13;98818.84;2210615;80;21024;-81
2022/01/22 02:10:09;;;;;;;13.90;6.50;;;;;;;-2.52;77.79;98827.52;2198276;80;20973;-81
2022/01/22 02:26:09;;;;;;;12.40;6.27;;;;;;;-2.94;79.20;98806.11;2203186;80;21056;-81
2022/01/22 02:29:09;;;;;;;15.37;6.40;;;;;;;-3.10;79.45;98807.20;2205188;80;21040;-83
2022/01/22 02:35:28;;;;;;;11.23;5.73;;;;;;;-3.29;79.89;98802.19;2190518;80;21371;-84
2022/01/22 02:38:36;;;;;;;15.93;5.93;;;;;;;-3.40;79.90;98802.28;2210752;80;21388;-84
2022/01/22 02:41:27;;;;;;;15.13;6.20;;;;;;;-3.52;80.14;98807.04;2200350;80;21066;-83
2022/01/22 02:44:44;;;;;;;18.03;7.40;;;;;;;-3.58;80.43;98807.03;2211798;80;21079;-85
2022/01/22 02:47:38;;;;;;;16.80;6.97;;;;;;;-3.63;80.65;98813.10;2209815;80;21495;-82
2022/01/22 02:50:39;;;;;;;16.37;7.80;;;;;;;-3.68;80.77;98813.58;2193553;80;20979;-83
2022/01/22 02:53:39;;;;;;;21.07;8.30;;;;;;;-3.73;80.92;98814.94;2198704;80;21308;-84
2022/01/22 02:56:40;;;;;;;24.27;9.27;;;;;;;-3.78;80.90;98815.03;2200512;80;20989;-83
2022/01/22 02:59:40;;;;;;;22.00;9.67;;;;;;;-3.82;81.07;98809.23;2208626;80;20984;-83
2022/01/22 03:02:41;;;;;;;21.77;10.13;;;;;;;-3.86;81.07;98813.23;2209951;80;20964;-83
2022/01/22 03:05:41;;;;;;;24.10;10.70;;;;;;;-3.89;81.10;98815.19;2210342;80;20960;-83
2022/01/22 03:08:43;;;;;;;19.07;8.97;;;;;;;-3.88;81.46;98814.41;2189781;80;21018;-83
2022/01/22 03:12:12;;;;;;;23.37;10.63;;;;;;;-3.83;81.35;98820.21;2193325;80;21043;-84
2022/01/22 03:18:09;;;;;;;16.60;10.40;;;;;;;-3.86;81.09;98810.69;2182847;80;21018;-83
2022/01/22 03:21:25;;;;;;;19.97;11.33;;;;;;;-3.89;81.14;98821.56;2201664;80;21011;-83
2022/01/22 03:27:31;;;;;;;20.70;12.00;;;;;;;-3.96;81.19;98821.94;2210990;80;21001;-80
2022/01/22 03:30:32;;;;;;;22.00;12.07;;;;;;;-3.97;81.44;98826.55;2200933;80;21426;-82
2022/01/22 03:33:32;;;;;;;24.97;13.30;;;;;;;-3.93;81.58;98823.42;2203582;80;21008;-82
2022/01/22 03:36:34;;;;;;;23.43;12.20;;;;;;;-3.86;81.58;98830.70;2206854;80;20992;-81
2022/01/22 03:39:35;;;;;;;20.27;12.20;;;;;;;-3.78;81.39;98829.05;2210934;80;21387;-81
2022/01/22 03:42:36;;;;;;;25.30;14.80;;;;;;;-3.71;81.28;98832.51;2206396;80;20987;-82
2022/01/22 03:45:36;;;;;;;22.00;12.87;;;;;;;-3.30;87.91;98837.83;2200947;80;20969;-83
2022/01/22 03:48:37;;;;;;;22.77;12.17;;;;;;;-3.06;81.95;98838.53;2195381;80;21433;-83
2022/01/22 03:51:37;;;;;;;21.90;13.07;;;;;;;-3.10;81.13;98836.56;2205041;80;21032;-83
2022/01/22 03:54:39;;;;;;;25.10;13.10;;;;;;;-3.09;80.83;98843.44;2188760;80;20980;-82
2022/01/22 03:57:42;;;;;;;25.57;14.00;;;;;;;-3.15;80.63;98850.31;2203628;80;20996;-81
2022/01/22 04:00:43;;;;;;;23.60;13.57;;;;;;;-3.18;80.66;98850.50;2202008;80;21055;-83
2022/01/22 04:03:53;;;;;;;21.33;13.50;;;;;;;-3.15;80.68;98849.03;2204786;80;21004;-83
2022/01/22 04:07:22;;;;;;;23.53;14.10;;;;;;;-3.11;80.67;98852.67;2194481;80;21040;-82
2022/01/22 04:09:55;;;;;;;21.60;13.23;;;;;;;-3.05;80.65;98855.63;2201067;80;21000;-83
2022/01/22 04:13:02;;;;;;;22.37;11.50;;;;;;;-2.96;80.63;98856.22;2193310;80;21075;-83
2022/01/22 04:16:00;;;;;;;18.95;12.03;;;;;;;-2.92;80.54;98851.41;2187779;80;20987;-82
2022/01/22 04:25:44;;;;;;;21.53;12.40;;;;;;;-3.03;80.71;98851.50;2210792;80;21043;-82
2022/01/22 04:28:41;;;;;;;23.00;12.83;;;;;;;-3.01;80.93;98858.86;2200287;80;21483;-82
2022/01/22 04:31:42;;;;;;;13.37;7.73;;;;;;;-2.99;81.04;98856.02;2210541;80;21016;-83
2022/01/22 04:34:42;;;;;;;28.00;14.60;;;;;;;-2.82;86.80;98853.27;2205673;80;21003;-81
2022/01/22 04:37:43;;;;;;;20.77;12.47;;;;;;;-2.22;82.97;98857.53;2201416;80;21426;-82
2022/01/22 04:40:43;;;;;;;26.50;13.73;;;;;;;-2.37;81.09;98870.64;2202462;80;21384;-82
2022/01/22 04:43:45;;;;;;;20.27;11.97;;;;;;;-2.51;80.75;98867.23;2198700;80;21349;-82
2022/01/22 04:46:56;;;;;;;22.73;13.40;;;;;;;-2.61;80.71;98869.56;2209163;80;21106;-82
2022/01/22 04:56:18;;;;;;;22.10;12.30;;;;;;;-2.79;80.99;98864.95;2199076;80;20952;-81
2022/01/22 04:59:19;;;;;;;20.77;13.30;;;;;;;-2.83;81.01;98873.21;2216959;80;20987;-82
2022/01/22 05:02:19;;;;;;;24.13;12.37;;;;;;;-2.91;81.09;98877.44;2216752;80;21023;-82
2022/01/22 05:05:20;;;;;;;20.33;12.90;;;;;;;-2.92;81.18;98883.33;2215983;80;21352;-83
2022/01/22 05:08:20;;;;;;;23.60;13.87;;;;;;;-2.91;81.42;98879.11;2215431;80;20976;-82
2022/01/22 05:11:21;;;;;;;19.83;12.03;;;;;;;-2.92;81.49;98883.33;2214229;80;21422;-83
2022/01/22 05:14:23;;;;;;;25.30;13.53;;;;;;;-2.89;81.59;98889.91;2217449;80;21367;-84
2022/01/22 05:17:24;;;;;;;25.47;14.23;;;;;;;-2.93;81.74;98894.72;2216020;80;21031;-81
2022/01/22 05:20:29;;;;;;;19.63;12.17;;;;;;;-2.94;81.77;98898.06;2216237;80;20992;-82
2022/01/22 05:23:27;;;;;;;20.80;12.33;;;;;;;-2.96;81.94;98897.96;2216723;80;20991;-80
2022/01/22 05:33:13;;;;;;;19.27;11.30;;;;;;;-3.02;82.02;98904.34;2168017;82;21053;-82
2022/01/22 05:39:21;;;;;;;19.57;10.87;;;;;;;-3.04;82.02;98914.45;2140607;82;21012;-83
2022/01/22 05:42:21;;;;;;;16.93;10.40;;;;;;;-3.11;81.91;98907.57;2144927;82;21326;-82
2022/01/22 05:45:22;;;;;;;17.80;10.47;;;;;;;-3.22;81.96;98911.97;2129361;82;20986;-82
2022/01/22 05:48:23;;;;;;;15.07;9.07;;;;;;;-3.34;82.05;98914.59;2172061;82;20977;-82
2022/01/22 05:51:23;;;;;;;15.80;9.83;;;;;;;-3.46;82.01;98916.72;2169361;82;21080;-82
2022/01/22 06:00:52;;;;;;;16.17;10.37;;;;;;;-3.75;82.25;98924.52;2164122;82;21054;-82
2022/01/22 06:03:52;;;;;;;15.97;9.87;;;;;;;-3.81;82.30;98935.97;2136088;83;21435;-82
2022/01/22 06:06:53;;;;;;;14.33;8.10;;;;;;;-3.89;82.42;98946.53;2140147;82;20988;-82
2022/01/22 06:13:14;;;;;;;16.00;10.23;;;;;;;-4.02;82.62;98951.95;2147184;82;21071;-83
2022/01/22 06:16:13;;;;;;;13.97;9.13;;;;;;;-4.09;82.78;98951.02;2141527;82;21052;-82
2022/01/22 06:19:14;;;;;;;16.67;9.93;;;;;;;-4.17;82.99;98953.91;2138502;82;20996;-78
2022/01/22 06:22:14;;;;;;;21.00;11.63;;;;;;;-4.20;83.00;98960.07;2210588;79;21039;-80
2022/01/22 06:25:15;;;;;;;19.00;9.60;;;;;;;-4.21;83.67;98960.85;2204034;80;20961;-79
2022/01/22 06:28:15;;;;;;;22.63;11.17;;;;;;;-4.17;83.55;98968.33;2201052;80;20951;-80
2022/01/22 06:31:16;;;;;;;47.90;16.80;;;;;;;-4.13;83.63;98961.39;2213294;80;20979;-79
2022/01/22 06:34:16;;;;;;;18.93;11.33;;;;;;;-4.08;83.59;98970.64;2210129;80;20939;-80
2022/01/22 06:37:16;;;;;;;15.93;9.57;;;;;;;-4.04;83.75;98969.69;2209788;80;20959;-79
2022/01/22 06:43:19;;;;;;;18.67;9.80;;;;;;;-3.99;83.80;98975.99;2218364;79;21089;-80
2022/01/22 06:46:20;;;;;;;20.40;10.57;;;;;;;-3.96;83.89;98976.20;2221844;80;20952;-80
2022/01/22 06:49:20;;;;;;;18.47;8.83;;;;;;;-3.92;83.91;98979.86;2218515;80;20967;-80
2022/01/22 06:52:21;;;;;;;16.27;10.33;;;;;;;-3.88;83.90;98975.47;2224664;80;20979;-79
2022/01/22 06:55:28;;;;;;;20.73;9.63;;;;;;;-3.81;83.61;98977.66;2224370;80;20975;-80
2022/01/22 06:58:24;;;;;;;14.13;8.50;;;;;;;-3.78;83.51;98993.19;2215954;80;21044;-80
2022/01/22 07:01:24;;;;;;;17.53;8.70;;;;;;;-3.74;83.45;98994.28;2223108;80;20984;-82
2022/01/22 07:04:25;;;;;;;18.93;9.47;;;;;;;-3.70;83.32;98987.34;2223909;80;20983;-82
2022/01/22 07:07:25;;;;;;;20.80;8.90;;;;;;;-3.64;83.25;98992.86;2214628;80;20979;-82
2022/01/22 07:10:26;;;;;;;12.77;7.73;;;;;;;-3.59;82.98;98994.06;2219817;80;20944;-81
2022/01/22 07:13:26;;;;;;;13.43;7.43;;;;;;;-3.54;82.73;98988.50;2214830;80;20984;-82
2022/01/22 07:16:27;;;;;;;14.57;8.17;;;;;;;-3.50;82.33;98996.36;2221467;80;21006;-82
2022/01/22 07:19:27;;;;;;;16.23;8.37;;;;;;;-3.45;82.38;98993.38;2223005;80;21440;-82
2022/01/22 07:22:48;;;;;;;15.13;8.03;;;;;;;-3.39;82.12;99005.28;2221440;80;21613;-83
2022/01/22 07:25:39;;;;;;;14.00;7.47;;;;;;;-3.35;81.89;99009.81;2220207;80;21003;-82
2022/01/22 07:28:40;;;;;;;16.63;7.73;;;;;;;-3.27;81.78;99006.51;2220453;80;21323;-82
2022/01/22 07:31:41;;;;;;;13.20;7.23;;;;;;;-3.18;81.46;99008.41;2221160;80;21387;-83
2022/01/22 07:34:41;;;;;;;10.30;6.97;;;;;;;-3.10;81.21;99003.82;2219483;80;21351;-82
2022/01/22 07:37:42;;;;;;;12.83;7.13;;;;;;;-3.01;80.71;99013.38;2228327;80;21390;-82
2022/01/22 07:40:42;;;;;;;11.57;7.17;;;;;;;-2.95;80.81;99013.39;2220528;80;20980;-83
2022/01/22 07:43:43;;;;;;;13.17;8.20;;;;;;;-2.88;80.04;99021.07;2221692;80;20995;-82
2022/01/22 07:46:43;;;;;;;15.53;7.97;;;;;;;-2.82;79.89;99021.48;2219471;80;20984;-81
2022/01/22 07:49:44;;;;;;;18.57;8.27;;;;;;;-2.71;79.74;99023.47;2227836;80;20951;-82
2022/01/22 07:52:45;;;;;;;14.70;8.00;;;;;;;-2.63;79.38;99049.13;2220763;80;20992;-82
2022/01/22 07:55:45;;;;;;;16.73;7.43;;;;;;;-2.58;78.95;99042.30;2215402;80;21019;-83
2022/01/22 07:58:45;;;;;;;21.60;10.10;;;;;;;-2.50;78.81;99050.86;2220761;80;20967;-83
2022/01/22 08:01:46;;;;;;;19.03;8.87;;;;;;;-2.45;78.64;99049.49;2218761;80;20927;-81
2022/01/22 08:04:46;;;;;;;22.67;8.97;;;;;;;-2.32;78.46;99052.06;2221401;80;21037;-82
2022/01/22 08:07:48;;;;;;;25.70;7.73;;;;;;;-2.19;78.13;99062.30;2221110;80;21390;-82
2022/01/22 08:10:49;;;;;;;26.13;8.33;;;;;;;-2.17;77.20;99069.68;2221719;80;21081;-82
2022/01/22 08:13:49;;;;;;;45.17;11.20;;;;;;;-2.10;77.20;99074.41;2220405;80;20940;-84
2022/01/22 08:16:50;;;;;;;14.70;6.10;;;;;;;-2.01;76.71;99076.27;2218937;80;21620;-83
2022/01/22 08:19:50;;;;;;;19.00;6.93;;;;;;;-1.90;76.32;99070.95;2223286;80;21351;-82
2022/01/22 08:22:51;;;;;;;18.43;7.37;;;;;;;-1.79;76.09;99068.69;2226580;80;21434;-82
2022/01/22 08:25:51;;;;;;;17.73;5.87;;;;;;;-1.69;75.12;99069.39;2227289;80;21025;-82
2022/01/22 08:28:57;;;;;;;19.07;7.27;;;;;;;-1.65;74.27;99079.43;2225074;80;21623;-81
2022/01/22 08:32:33;;;;;;;18.63;6.63;;;;;;;-1.65;73.84;99089.67;2219306;80;21348;-82
2022/01/22 08:38:31;;;;;;;12.33;5.70;;;;;;;-1.83;73.65;99100.88;2220289;80;21405;-82
2022/01/22 08:41:31;;;;;;;14.67;6.63;;;;;;;-1.80;73.92;99092.50;2220826;80;21014;-82
2022/01/22 08:44:32;;;;;;;23.63;6.90;;;;;;;-1.76;72.96;99104.31;2218185;80;21003;-80
2022/01/22 08:47:32;;;;;;;13.43;6.87;;;;;;;-1.71;73.29;99103.36;2220332;80;20966;-82
2022/01/22 08:50:34;;;;;;;16.47;6.73;;;;;;;-1.65;72.38;99107.59;2224659;80;21010;-84
2022/01/22 08:53:35;;;;;;;15.37;6.43;;;;;;;-1.52;72.63;99116.93;2224450;80;21434;-84
2022/01/22 08:56:37;;;;;;;15.53;5.83;;;;;;;-1.38;72.40;99107.16;2221843;80;20995;-82
2022/01/22 08:59:37;;;;;;;15.97;6.10;;;;;;;-1.30;71.75;99111.96;2219338;80;21092;-82
2022/01/22 09:02:38;;;;;;;12.73;6.57;;;;;;;-1.33;71.04;99118.17;2225237;80;20964;-83
2022/01/22 09:05:38;;;;;;;12.77;6.80;;;;;;;-1.37;71.27;99125.17;2219710;80;20952;-82
2022/01/22 09:08:39;;;;;;;11.23;6.10;;;;;;;-1.33;71.39;99128.42;2224115;80;20972;-83
2022/01/22 09:11:39;;;;;;;12.97;6.67;;;;;;;-1.27;70.70;99131.76;2219524;80;20983;-82
2022/01/22 09:14:41;;;;;;;26.40;8.77;;;;;;;-1.18;70.95;99138.73;2224630;80;20964;-82
2022/01/22 09:17:47;;;;;;;23.07;8.77;;;;;;;-1.10;70.19;99134.97;2216704;80;21140;-82
2022/01/22 09:21:01;;;;;;;32.20;14.10;;;;;;;-0.99;69.66;99139.08;2221127;79;21034;-83
2022/01/22 09:23:46;;;;;;;20.00;9.90;;;;;;;-0.85;69.36;99150.20;2164828;82;21082;-82
2022/01/22 09:26:47;;;;;;;12.73;7.50;;;;;;;-0.77;69.26;99155.40;2150654;82;20989;-81
2022/01/22 09:29:48;;;;;;;14.10;5.87;;;;;;;-0.76;68.81;99162.70;2140011;82;20990;-83
2022/01/22 09:32:48;;;;;;;10.70;5.57;;;;;;;-0.71;69.21;99180.13;2150471;82;20985;-83
2022/01/22 09:35:49;;;;;;;12.73;5.13;;;;;;;-0.70;69.07;99158.83;2153307;82;21436;-82
2022/01/22 09:38:50;;;;;;;12.83;5.57;;;;;;;-0.66;68.36;99156.94;2161029;82;21018;-81
2022/01/22 09:41:50;;;;;;;13.70;6.23;;;;;;;-0.63;68.54;99163.05;2152745;82;21348;-78
2022/01/22 09:44:51;;;;;;;9.93;5.53;;;;;;;-0.61;67.94;99158.50;2142575;83;20971;-81
2022/01/22 09:47:51;;;;;;;12.90;5.47;;;;;;;-0.48;67.67;99160.11;2170009;81;21022;-79
2022/01/22 09:50:52;;;;;;;13.00;5.23;;;;;;;-0.32;66.80;99166.64;2145535;82;21052;-81
2022/01/22 09:53:52;;;;;;;19.00;7.00;;;;;;;-0.25;67.37;99158.52;2117913;83;21005;-84
2022/01/22 09:56:53;;;;;;;13.67;5.50;;;;;;;-0.13;67.29;99161.80;2143648;82;21053;-82
2022/01/22 09:59:53;;;;;;;11.43;5.37;;;;;;;-0.22;66.57;99165.50;2144844;82;20994;-83
2022/01/22 10:02:54;;;;;;;18.70;7.63;;;;;;;-0.33;66.40;99172.57;2151435;81;21029;-81
2022/01/22 10:05:54;;;;;;;12.30;5.13;;;;;;;-0.38;67.08;99159.87;2139001;82;21041;-82
2022/01/22 10:08:57;;;;;;;13.97;5.90;;;;;;;-0.40;66.73;99168.75;2160506;82;21045;-81
2022/01/22 10:11:57;;;;;;;12.40;5.50;;;;;;;-0.46;66.59;99160.70;2201112;80;20960;-83
2022/01/22 10:14:57;;;;;;;11.47;5.40;;;;;;;-0.44;66.77;99178.34;2202871;80;20955;-81
2022/01/22 10:17:58;;;;;;;9.93;4.80;;;;;;;-0.48;66.82;99180.63;2217421;80;20948;-82
2022/01/22 10:20:59;;;;;;;14.07;4.70;;;;;;;-0.54;66.45;99181.55;2225666;80;21023;-82
2022/01/22 10:23:59;;;;;;;9.47;5.27;;;;;;;-0.57;66.75;99195.46;2221758;80;21010;-84
2022/01/22 10:27:00;;;;;;;11.20;4.90;;;;;;;-0.62;67.13;99190.05;2223163;80;20999;-82
2022/01/22 10:30:02;;;;;;;11.27;5.83;;;;;;;-0.66;67.52;99195.78;2223277;80;20947;-83
2022/01/22 10:33:10;;;;;;;13.60;5.80;;;;;;;-0.66;67.04;99190.27;2228749;80;21042;-83
2022/01/22 10:36:08;;;;;;;12.83;4.67;;;;;;;-0.68;67.18;99185.84;2220708;79;20945;-83
2022/01/22 10:39:09;;;;;;;15.00;6.37;;;;;;;-0.59;67.16;99190.23;2218541;80;20995;-84
2022/01/22 10:42:09;;;;;;;13.63;6.70;;;;;;;-0.48;67.02;99194.73;2221463;80;21347;-83
2022/01/22 10:45:13;;;;;;;17.70;7.03;;;;;;;-0.37;66.92;99186.89;2222248;80;21370;-83
2022/01/22 10:48:12;;;;;;;12.07;5.27;;;;;;;-0.11;66.53;99203.83;2227750;80;20999;-83
2022/01/22 10:51:12;;;;;;;13.90;6.37;;;;;;;-0.04;65.37;99217.52;2218309;80;20979;-83
2022/01/22 10:54:13;;;;;;;12.27;5.70;;;;;;;-0.12;66.14;99205.02;2219270;80;21047;-83
2022/01/22 10:57:13;;;;;;;14.20;6.37;;;;;;;-0.04;66.73;99209.81;2215978;80;20994;-82
2022/01/22 11:00:23;;;;;;;18.70;6.87;;;;;;;-0.12;66.36;99226.83;2204863;80;20969;-83
2022/01/22 11:03:25;;;;;;;20.27;8.27;;;;;;;-0.18;67.85;99217.09;2193566;80;20940;-83
2022/01/22 11:06:26;;;;;;;12.80;6.40;;;;;;;-0.27;67.09;99223.36;2197009;80;21036;-82
2022/01/22 11:09:29;;;;;;;13.83;6.50;;;;;;;-0.39;67.68;99228.63;2204893;80;20980;-83
2022/01/22 11:12:29;;;;;;;12.70;7.23;;;;;;;-0.49;67.87;99248.10;2205696;80;21063;-83
2022/01/22 11:15:30;;;;;;;12.57;6.50;;;;;;;-0.49;68.45;99250.66;2212509;80;21375;-82
2022/01/22 11:18:30;;;;;;;10.50;6.33;;;;;;;-0.49;68.39;99250.27;2210701;80;21340;-82
2022/01/22 11:21:31;;;;;;;14.27;7.20;;;;;;;-0.59;68.84;99253.45;2205746;80;21352;-83
2022/01/22 11:24:32;;;;;;;15.97;7.30;;;;;;;-0.59;68.94;99256.91;2214020;80;21010;-83
2022/01/22 11:27:33;;;;;;;15.00;6.83;;;;;;;-0.58;68.88;99260.36;2209826;80;21344;-84
2022/01/22 11:30:33;;;;;;;16.33;7.80;;;;;;;-0.64;68.88;99267.27;2206079;80;20979;-83
2022/01/22 11:33:34;;;;;;;18.30;8.47;;;;;;;-0.71;69.00;99275.38;2207179;80;21318;-83
2022/01/22 11:36:34;;;;;;;16.47;7.53;;;;;;;-0.78;69.64;99280.52;2205997;80;21022;-83
2022/01/22 11:39:35;;;;;;;15.10;7.10;;;;;;;-0.84;69.67;99281.41;2206835;80;20992;-82
2022/01/22 11:42:36;;;;;;;14.23;8.00;;;;;;;-0.94;69.20;99292.23;2207769;80;20980;-83
2022/01/22 11:45:37;;;;;;;17.97;9.40;;;;;;;-1.06;69.72;99308.98;2205703;80;20999;-83
2022/01/22 11:48:37;;;;;;;24.70;9.60;;;;;;;-1.12;70.00;99297.95;2203335;80;20992;-83
2022/01/22 11:51:38;;;;;;;19.97;8.30;;;;;;;-1.12;70.39;99303.47;2194236;81;21466;-82
2022/01/22 11:54:38;;;;;;;15.77;7.07;;;;;;;-1.11;70.37;99303.95;2197469;80;21434;-83
2022/01/22 11:57:38;;;;;;;16.43;7.27;;;;;;;-1.13;70.33;99311.94;2220697;80;20987;-83
2022/01/22 12:00:39;;;;;;;19.90;6.83;;;;;;;-1.17;70.27;99325.34;2220420;80;20963;-81
2022/01/22 12:03:39;;;;;;;19.40;8.10;;;;;;;-1.20;70.27;99327.30;2223506;80;21066;-81
2022/01/22 12:06:40;;;;;;;16.13;6.67;;;;;;;-1.17;70.60;99331.73;2226560;80;20990;-82
2022/01/22 12:09:52;;;;;;;17.30;6.87;;;;;;;-1.17;70.30;99341.98;2224249;80;20958;-82
2022/01/22 12:15:54;;;;;;;15.17;6.77;;;;;;;-1.18;70.18;99341.49;2220441;80;21653;-82
2022/01/22 12:18:59;;;;;;;16.30;6.67;;;;;;;-1.14;70.31;99346.92;2220828;80;20963;-81
2022/01/22 12:21:57;;;;;;;15.90;7.47;;;;;;;-1.12;69.59;99354.31;2226972;80;20966;-80
2022/01/22 12:24:57;;;;;;;11.93;6.07;;;;;;;-1.14;69.91;99346.03;2223510;80;21351;-83
2022/01/22 12:27:57;;;;;;;13.33;6.13;;;;;;;-1.19;69.62;99364.94;2220705;80;20975;-82
2022/01/22 12:30:58;;;;;;;16.53;6.83;;;;;;;-1.23;70.12;99371.05;2225348;80;20971;-82
2022/01/22 12:34:01;;;;;;;14.00;5.53;;;;;;;-1.19;70.29;99378.14;2214810;80;20983;-82
2022/01/22 12:37:05;;;;;;;14.07;6.07;;;;;;;-1.18;70.10;99378.64;2225028;80;21026;-83
2022/01/22 12:40:06;;;;;;;13.73;6.67;;;;;;;-1.18;69.78;99377.36;2224711;80;20983;-82
2022/01/22 12:43:13;;;;;;;15.50;6.87;;;;;;;-1.19;69.94;99387.11;2220136;80;21040;-82
2022/01/22 12:46:11;;;;;;;19.57;8.10;;;;;;;-1.17;69.74;99388.09;2214930;80;20968;-82
2022/01/22 12:49:11;;;;;;;21.57;8.60;;;;;;;-1.15;70.16;99393.81;2215791;80;20967;-82
2022/01/22 12:52:15;;;;;;;19.60;9.10;;;;;;;-1.13;70.18;99384.95;2218914;80;20979;-83
2022/01/22 12:55:16;;;;;;;21.73;7.17;;;;;;;-1.14;69.83;99395.59;2224652;80;21019;-82
2022/01/22 12:58:17;;;;;;;18.83;7.37;;;;;;;-1.19;69.90;99398.24;2225250;80;21387;-82
2022/01/22 13:01:17;;;;;;;16.93;6.97;;;;;;;-1.18;70.35;99395.29;2218419;80;21383;-82
2022/01/22 13:04:18;;;;;;;17.43;8.43;;;;;;;-1.14;70.16;99396.88;2218462;80;20953;-81
2022/01/22 13:07:19;;;;;;;17.13;8.90;;;;;;;-1.18;70.18;99400.41;2214105;80;21035;-82
2022/01/22 13:10:22;;;;;;;17.77;7.60;;;;;;;-1.16;70.40;99402.69;2219812;80;21034;-82
2022/01/22 13:13:22;;;;;;;17.13;6.80;;;;;;;-1.19;70.34;99406.32;2213229;80;21443;-81
2022/01/22 13:16:23;;;;;;;19.23;7.77;;;;;;;-1.21;70.09;99401.48;2227131;80;20963;-82
2022/01/22 13:19:23;;;;;;;17.13;8.10;;;;;;;-1.23;70.33;99409.47;2227137;80;20989;-81
2022/01/22 13:22:24;;;;;;;18.63;7.00;;;;;;;-1.18;70.55;99414.11;2220776;80;20939;-83
2022/01/22 13:25:24;;;;;;;19.77;7.37;;;;;;;-1.13;70.27;99414.41;2223675;80;21003;-83
2022/01/22 13:28:24;;;;;;;13.50;7.20;;;;;;;-1.15;70.09;99425.84;2222865;80;20956;-82
2022/01/22 13:31:25;;;;;;;27.27;12.50;;;;;;;-1.15;70.54;99428.80;2219594;80;21354;-82
2022/01/22 13:34:42;;;;;;;11.60;6.57;;;;;;;-1.14;70.67;99439.14;2225393;80;20952;-82
2022/01/22 13:50:38;;;;;;;18.57;9.00;;;;;;;-1.22;70.72;99445.43;2222529;80;20932;-83
2022/01/22 13:53:40;;;;;;;16.93;7.97;;;;;;;-1.24;71.08;99463.65;2225056;80;21339;-82
2022/01/22 13:56:41;;;;;;;15.20;8.23;;;;;;;-1.26;71.18;99466.89;2220402;80;21000;-83
2022/01/22 13:59:41;;;;;;;19.60;8.73;;;;;;;-1.30;71.19;99473.48;2221860;80;21370;-82
2022/01/22 14:06:01;;;;;;;23.27;7.80;;;;;;;-1.32;71.71;99478.50;2225088;80;21076;-81
2022/01/22 14:09:02;;;;;;;17.13;7.50;;;;;;;-1.32;71.64;99498.98;2225176;80;20999;-82
2022/01/22 14:12:02;;;;;;;16.03;7.33;;;;;;;-1.34;72.09;99500.55;2225187;80;20990;-82
2022/01/22 14:15:03;;;;;;;22.33;9.60;;;;;;;-1.36;71.86;99493.16;2224882;80;21039;-82
2022/01/22 14:18:09;;;;;;;25.90;9.63;;;;;;;-1.36;71.90;99503.80;2222072;80;20991;-83
2022/01/22 14:21:09;;;;;;;23.47;10.20;;;;;;;-1.37;72.21;99513.55;2227476;79;21413;-83
2022/01/22 14:24:10;;;;;;;24.23;8.73;;;;;;;-1.39;72.15;99505.75;2226040;80;21047;-82
2022/01/22 14:27:10;;;;;;;18.67;8.60;;;;;;;-1.41;72.41;99507.72;2217186;80;21011;-81
2022/01/22 14:30:11;;;;;;;17.30;7.73;;;;;;;-1.42;72.57;99510.66;2219510;80;21007;-82
2022/01/22 14:33:11;;;;;;;17.87;7.87;;;;;;;-1.43;72.83;99511.45;2224798;80;20971;-82
2022/01/22 14:36:12;;;;;;;23.00;9.70;;;;;;;-1.45;72.92;99509.17;2228283;80;20975;-82
2022/01/22 14:39:16;;;;;;;18.13;8.53;;;;;;;-1.47;73.08;99514.58;2224621;80;21390;-82
2022/01/22 14:45:33;;;;;;;15.53;7.77;;;;;;;-1.51;73.31;99516.82;2220288;80;21354;-82
2022/01/22 14:48:33;;;;;;;23.10;10.00;;;;;;;-1.55;73.37;99510.60;2221546;80;20960;-82
2022/01/22 14:51:36;;;;;;;28.60;10.60;;;;;;;-1.56;73.54;99516.89;2225309;80;21386;-82
2022/01/22 14:54:36;;;;;;;24.90;9.53;;;;;;;-1.59;73.71;99512.84;2216552;80;20999;-82
2022/01/22 14:57:37;;;;;;;24.23;9.70;;;;;;;-1.61;73.79;99525.53;2216324;80;20956;-82
2022/01/22 15:00:37;;;;;;;20.30;8.90;;;;;;;-1.63;74.13;99532.22;2228084;80;21047;-81
2022/01/22 15:03:38;;;;;;;27.97;11.10;;;;;;;-1.65;74.17;99538.90;2221972;80;20943;-81
2022/01/22 15:06:39;;;;;;;26.03;9.70;;;;;;;-1.67;74.44;99559.66;2228300;80;20967;-81
2022/01/22 15:09:40;;;;;;;24.27;10.50;;;;;;;-1.68;74.59;99539.58;2223177;80;21094;-83
2022/01/22 15:12:40;;;;;;;20.37;8.50;;;;;;;-1.69;74.45;99550.59;2226507;80;20975;-82
2022/01/22 15:15:46;;;;;;;19.93;8.57;;;;;;;-1.69;74.43;99550.59;2223869;80;21343;-82
2022/01/22 15:21:46;;;;;;;28.80;11.43;;;;;;;-1.72;74.46;99558.45;2219765;80;21027;-82
2022/01/22 15:24:46;;;;;;;33.07;12.70;;;;;;;-1.75;74.68;99566.77;2220870;80;20971;-82
2022/01/22 15:27:47;;;;;;;23.77;8.93;;;;;;;-1.78;74.72;99566.94;2223459;80;20944;-83
2022/01/22 15:30:51;;;;;;;30.97;10.93;;;;;;;-1.77;74.74;99582.79;2220044;80;20967;-82
2022/01/22 15:34:05;;;;;;;27.67;9.97;;;;;;;-1.78;75.03;99587.41;2221561;79;21406;-82
2022/01/22 15:36:52;;;;;;;23.33;10.47;;;;;;;-1.78;74.89;99592.53;2223376;80;21027;-81
2022/01/22 15:39:53;;;;;;;25.97;10.60;;;;;;;-1.80;74.79;99584.74;2223472;80;20964;-83
2022/01/22 15:42:53;;;;;;;25.40;11.83;;;;;;;-1.82;74.81;99593.98;2223498;80;20979;-81
2022/01/22 15:45:54;;;;;;;21.83;9.33;;;;;;;-1.85;74.91;99600.16;2221314;80;20924;-82
2022/01/22 15:48:55;;;;;;;30.47;10.73;;;;;;;-1.85;74.78;99602.72;2221310;80;21010;-82